Terminal Aerodrome Forecast
Issued by NWS Charleston, WV

Home | Current Version | Previous Version | Text Only | Print | Product List | Glossary On
Versions: 1 2 3 4 5 6 7 8 9 10 11 12 13 14 15 16 17 18 19 20 21 22 23
196
FTUS41 KRLX 291724
TAFPKB
TAF
KPKB 291724Z 2918/3018 15005KT P6SM -SHRA VCTS BKN080CB
     FM300000 18006KT P6SM BKN150
     FM300500 00000KT 4SM BR SCT040
     FM301300 VRB04KT P6SM BKN250=

USA.gov is the U.S. government's official web portal to all federal, state and local government web resources and services.